createdAt,value
2023-01-05T00:00:56.170Z,100989.28
2023-01-05T00:03:22.742Z,101022.16
2023-01-05T00:05:49.216Z,101000.94
2023-01-05T00:08:15.536Z,100991.00
2023-01-05T00:11:00.508Z,101014.06
2023-01-05T00:13:45.229Z,101021.56
2023-01-05T00:16:33.708Z,101032.56
2023-01-05T00:19:18.511Z,101026.84
2023-01-05T00:22:03.332Z,100978.94
2023-01-05T00:24:31.714Z,101007.88
2023-01-05T00:26:58.148Z,100969.13
2023-01-05T00:29:24.538Z,100895.06
2023-01-05T00:31:50.995Z,100977.19
2023-01-05T00:34:17.360Z,100903.56
2023-01-05T00:36:43.776Z,100951.88
2023-01-05T00:39:10.247Z,101015.00
2023-01-05T00:41:36.634Z,100961.59
2023-01-05T00:44:02.979Z,100976.09
2023-01-05T00:46:29.300Z,100990.44
2023-01-05T00:48:55.670Z,100994.75
2023-01-05T00:51:21.995Z,100998.34
2023-01-05T00:53:48.789Z,100850.06
2023-01-05T00:56:15.482Z,101032.31
2023-01-05T00:58:41.880Z,101021.53
2023-01-05T01:01:12.635Z,100984.38
2023-01-05T01:03:39.544Z,100996.63
2023-01-05T01:06:06.149Z,100904.28
2023-01-05T01:08:32.506Z,101015.72
2023-01-05T01:11:03.773Z,100923.50
2023-01-05T01:13:30.139Z,101013.75
2023-01-05T01:15:56.463Z,101022.78
2023-01-05T01:18:23.359Z,100938.16
2023-01-05T01:20:49.740Z,101024.75
2023-01-05T01:23:16.084Z,101001.84
2023-01-05T01:25:42.410Z,100984.56
2023-01-05T01:28:08.754Z,100990.31
2023-01-05T01:30:38.486Z,101018.50
2023-01-05T01:33:05.337Z,100909.31
2023-01-05T01:35:31.714Z,100956.03
2023-01-05T01:37:58.068Z,100979.81
2023-01-05T01:40:24.414Z,101059.47
2023-01-05T01:42:50.770Z,100950.13
2023-01-05T01:45:22.906Z,100970.72
2023-01-05T01:47:58.148Z,100994.69
2023-01-05T01:50:35.953Z,101041.09
2023-01-05T01:53:07.787Z,101066.19
2023-01-05T01:55:35.527Z,101062.72
2023-01-05T01:58:05.399Z,101052.16
2023-01-05T02:00:31.753Z,101045.84
2023-01-05T02:02:58.387Z,101037.03
2023-01-05T02:05:29.406Z,101053.72
2023-01-05T02:07:55.903Z,101032.72
2023-01-05T02:10:29.782Z,101051.38
2023-01-05T02:13:35.185Z,101092.22
2023-01-05T02:16:07.553Z,101093.28
2023-01-05T02:18:57.436Z,101090.03
2023-01-05T02:21:55.460Z,101087.94
2023-01-05T02:24:59.730Z,101098.03
2023-01-05T02:27:30.591Z,101101.78
2023-01-05T02:30:39.277Z,101073.38
2023-01-05T02:33:25.201Z,101058.72
2023-01-05T02:36:33.517Z,101097.00
2023-01-05T02:39:16.970Z,101092.63
2023-01-05T02:41:59.969Z,101096.53
2023-01-05T02:44:30.728Z,101004.44
2023-01-05T02:47:03.378Z,101101.09
2023-01-05T02:49:33.056Z,100995.94
2023-01-05T02:52:02.802Z,101090.09
2023-01-05T02:54:38.855Z,101062.59
2023-01-05T02:57:11.835Z,101038.72
2023-01-05T02:59:47.660Z,101062.88
2023-01-05T03:02:21.084Z,100982.66
2023-01-05T03:04:59.154Z,100973.47
2023-01-05T03:07:28.970Z,101083.03
2023-01-05T03:09:55.428Z,101015.44
2023-01-05T03:12:50.684Z,100986.41
2023-01-05T03:15:28.385Z,101088.16
2023-01-05T03:17:58.315Z,101067.59
2023-01-05T03:20:28.037Z,101084.97
2023-01-05T03:23:15.572Z,100971.03
2023-01-05T03:26:01.302Z,101090.16
2023-01-05T03:28:53.940Z,101098.34
2023-01-05T03:31:46.178Z,101094.19
2023-01-05T03:34:45.000Z,101115.63
2023-01-05T03:37:16.868Z,101098.53
2023-01-05T03:39:47.092Z,101058.72
2023-01-05T03:42:15.398Z,101089.13
2023-01-05T03:44:45.617Z,100990.81
2023-01-05T03:47:12.876Z,101089.59
2023-01-05T03:49:39.304Z,101094.00
2023-01-05T03:52:05.674Z,101007.97
2023-01-05T03:54:32.038Z,100967.19
2023-01-05T03:56:58.361Z,101088.50
2023-01-05T03:59:24.710Z,101052.44
2023-01-05T04:01:51.151Z,101088.16
2023-01-05T04:04:17.552Z,101071.81
2023-01-05T04:06:43.870Z,101071.78
2023-01-05T04:09:10.252Z,100986.53
2023-01-05T04:11:36.667Z,101054.44
2023-01-05T04:14:03.054Z,101009.75
2023-01-05T04:16:29.405Z,101110.44
2023-01-05T04:18:55.805Z,101112.00
2023-01-05T04:21:22.179Z,101105.66
2023-01-05T04:23:48.512Z,101085.06
2023-01-05T04:26:14.910Z,101114.72
2023-01-05T04:28:41.271Z,101092.56
2023-01-05T04:31:07.717Z,101108.41
2023-01-05T04:33:34.205Z,101101.91
2023-01-05T04:36:00.641Z,101112.34
2023-01-05T04:38:27.075Z,101028.31
2023-01-05T04:40:53.400Z,101102.97
2023-01-05T04:43:19.927Z,100999.53
2023-01-05T04:45:48.781Z,101118.88
2023-01-05T04:48:15.874Z,100964.78
2023-01-05T04:50:42.708Z,101068.56
2023-01-05T04:53:09.325Z,101104.53
2023-01-05T04:55:35.651Z,101097.34
2023-01-05T04:58:05.529Z,101095.56
2023-01-05T05:00:34.808Z,101088.91
2023-01-05T05:03:02.245Z,101049.78
2023-01-05T05:05:28.687Z,101098.16
2023-01-05T05:07:55.118Z,101023.09
2023-01-05T05:10:21.529Z,101110.13
2023-01-05T05:12:47.869Z,101133.41
2023-01-05T05:15:14.260Z,101062.63
2023-01-05T05:17:40.744Z,101040.91
2023-01-05T05:20:07.769Z,101111.47
2023-01-05T05:22:34.144Z,101129.09
2023-01-05T05:25:00.514Z,101026.06
2023-01-05T05:27:26.902Z,101067.56
2023-01-05T05:29:53.278Z,101113.97
2023-01-05T05:32:19.663Z,101064.31
2023-01-05T05:34:46.033Z,101127.47
2023-01-05T05:37:12.377Z,101114.59
2023-01-05T05:39:38.736Z,101107.00
2023-01-05T05:42:05.427Z,101155.25
2023-01-05T05:44:31.802Z,101145.34
2023-01-05T05:46:58.185Z,101035.72
2023-01-05T05:49:24.656Z,101153.16
2023-01-05T05:51:54.704Z,101086.72
2023-01-05T05:54:44.683Z,101016.41
2023-01-05T05:57:11.167Z,101201.06
2023-01-05T05:59:37.499Z,101080.59
2023-01-05T06:02:03.959Z,101098.22
2023-01-05T06:04:30.481Z,101178.75
2023-01-05T06:06:56.835Z,101181.00
2023-01-05T06:09:24.884Z,101181.53
2023-01-05T06:11:52.230Z,101057.06
2023-01-05T06:14:18.622Z,101043.91
2023-01-05T06:16:45.861Z,101109.44
2023-01-05T06:19:12.366Z,101031.75
2023-01-05T06:21:38.750Z,101117.34
2023-01-05T06:24:05.550Z,101115.47
2023-01-05T06:26:31.952Z,101004.16
2023-01-05T06:28:58.374Z,101055.28
2023-01-05T06:31:24.725Z,101198.47
2023-01-05T06:33:51.092Z,101061.59
2023-01-05T06:36:17.545Z,101063.00
2023-01-05T06:38:44.173Z,101051.84
2023-01-05T06:41:11.235Z,101141.25
2023-01-05T06:43:38.765Z,101156.91
2023-01-05T06:46:15.364Z,101096.59
2023-01-05T06:48:41.757Z,101221.03
2023-01-05T06:51:08.157Z,101060.59
2023-01-05T06:53:34.568Z,101146.66
2023-01-05T06:56:01.008Z,101269.63
2023-01-05T06:58:27.758Z,101036.31
2023-01-05T07:00:54.826Z,101085.00
2023-01-05T07:03:23.687Z,101129.84
2023-01-05T07:05:51.905Z,101113.00
2023-01-05T07:08:18.316Z,101058.75
2023-01-05T07:10:44.675Z,101174.97
2023-01-05T07:13:11.055Z,101266.31
2023-01-05T07:15:37.460Z,101053.91
2023-01-05T07:18:04.004Z,101254.38
2023-01-05T07:20:30.357Z,101226.44
2023-01-05T07:22:56.769Z,101255.03
2023-01-05T07:25:23.220Z,101171.66
2023-01-05T07:27:52.436Z,101143.72
2023-01-05T07:30:18.983Z,101223.94
2023-01-05T07:32:45.428Z,101246.63
2023-01-05T07:35:11.783Z,101245.66
2023-01-05T07:37:38.169Z,101246.69
2023-01-05T07:40:05.168Z,101121.50
2023-01-05T07:42:31.721Z,101118.06
2023-01-05T07:44:58.102Z,101239.25
2023-01-05T07:47:24.440Z,101258.94
2023-01-05T07:49:50.831Z,101251.16
2023-01-05T07:52:17.695Z,101260.16
2023-01-05T07:54:45.227Z,101119.31
2023-01-05T07:57:11.654Z,101242.16
2023-01-05T07:59:38.053Z,101206.56
2023-01-05T08:02:04.545Z,101289.41
2023-01-05T08:04:31.041Z,101196.19
2023-01-05T08:06:57.508Z,101289.91
2023-01-05T08:09:42.470Z,101262.41
2023-01-05T08:12:08.982Z,101280.13
2023-01-05T08:14:35.342Z,101289.09
2023-01-05T08:17:01.720Z,101318.47
2023-01-05T08:19:28.202Z,101300.06
2023-01-05T08:21:54.621Z,101197.78
2023-01-05T08:24:20.988Z,101302.47
2023-01-05T08:26:49.877Z,101333.91
2023-01-05T08:29:16.298Z,101311.19
2023-01-05T08:31:42.872Z,101300.91
2023-01-05T08:34:13.865Z,101325.84
2023-01-05T08:36:41.319Z,101330.09
2023-01-05T08:39:10.598Z,101294.91
2023-01-05T08:41:39.090Z,101301.88
2023-01-05T08:44:14.228Z,101228.19
2023-01-05T08:46:40.632Z,101257.19
2023-01-05T08:49:09.502Z,101292.00
2023-01-05T08:51:36.454Z,101345.25
2023-01-05T08:54:02.975Z,101290.50
2023-01-05T08:56:36.432Z,101337.53
2023-01-05T08:59:05.013Z,101313.78
2023-01-05T09:01:31.624Z,101312.28
2023-01-05T09:03:58.822Z,101316.56
2023-01-05T09:06:25.590Z,101353.56
2023-01-05T09:08:51.992Z,101371.00
2023-01-05T09:11:22.016Z,101344.09
2023-01-05T09:13:59.864Z,101355.56
2023-01-05T09:19:16.140Z,101372.84
2023-01-05T09:21:43.446Z,101278.66
2023-01-05T09:24:14.309Z,101342.88
2023-01-05T09:26:41.789Z,101371.22
2023-01-05T09:29:08.994Z,101369.09
2023-01-05T09:31:35.500Z,101365.16
2023-01-05T09:34:02.007Z,101381.28
2023-01-05T09:36:28.391Z,101224.44
2023-01-05T09:38:56.973Z,101318.03
2023-01-05T09:41:26.104Z,101167.75
2023-01-05T09:43:57.519Z,101407.25
2023-01-05T09:46:30.872Z,101166.97
2023-01-05T09:49:00.948Z,101193.88
2023-01-05T09:51:28.625Z,101338.13
2023-01-05T09:53:55.303Z,101246.22
2023-01-05T09:57:07.264Z,101402.44
2023-01-05T09:59:41.351Z,101175.03
2023-01-05T10:02:18.642Z,101241.16
2023-01-05T10:04:47.133Z,101284.94
2023-01-05T10:07:32.144Z,101219.50
2023-01-05T10:10:05.668Z,101384.47
2023-01-05T10:13:02.995Z,101331.16
2023-01-05T10:15:44.737Z,101422.34
2023-01-05T10:18:16.001Z,101211.22
2023-01-05T10:21:00.459Z,101356.53
2023-01-05T10:24:08.151Z,101314.91
2023-01-05T10:27:24.759Z,101301.19
2023-01-05T10:30:13.193Z,101412.84
2023-01-05T10:33:26.028Z,101427.25
2023-01-05T10:36:28.187Z,101352.06
2023-01-05T10:39:26.002Z,101412.09
2023-01-05T10:42:02.737Z,101307.75
2023-01-05T10:44:51.189Z,101421.16
2023-01-05T10:47:18.024Z,101317.75
2023-01-05T10:49:46.443Z,101328.16
2023-01-05T10:52:16.612Z,101434.28
2023-01-05T10:54:59.218Z,101461.84
2023-01-05T10:57:39.496Z,101441.06
2023-01-05T11:00:06.095Z,101450.09
2023-01-05T11:02:36.035Z,101422.72
2023-01-05T11:05:17.996Z,101438.16
2023-01-05T11:07:56.647Z,101338.22
2023-01-05T11:10:33.505Z,101386.66
2023-01-05T11:13:03.473Z,101376.13
2023-01-05T11:15:41.047Z,101291.56
2023-01-05T11:18:24.979Z,101337.88
2023-01-05T11:21:16.816Z,101364.91
2023-01-05T11:23:46.007Z,101414.94
2023-01-05T11:26:18.524Z,101444.16
2023-01-05T11:29:14.003Z,101429.03
2023-01-05T11:31:58.702Z,101454.38
2023-01-05T11:34:36.263Z,101458.75
2023-01-05T11:37:08.468Z,101458.34
2023-01-05T11:39:41.139Z,101387.00
2023-01-05T11:42:20.211Z,101372.16
2023-01-05T11:45:20.588Z,101463.41
2023-01-05T11:47:52.057Z,101454.81
2023-01-05T11:50:25.063Z,101357.13
2023-01-05T11:52:56.858Z,101429.75
2023-01-05T11:55:30.417Z,101445.72
2023-01-05T11:58:22.280Z,101277.75
2023-01-05T12:01:01.801Z,101446.03
2023-01-05T12:04:01.109Z,101422.91
2023-01-05T12:06:46.895Z,101420.25
2023-01-05T12:09:36.849Z,101439.81
2023-01-05T12:12:14.952Z,101405.56
2023-01-05T12:15:01.756Z,101330.34
2023-01-05T12:17:43.537Z,101435.56
2023-01-05T12:20:33.472Z,101429.66
2023-01-05T12:23:32.188Z,101440.78
2023-01-05T12:26:29.529Z,101438.53
2023-01-05T12:35:58.288Z,101446.09
2023-01-05T12:38:43.912Z,101449.31
2023-01-05T12:41:24.340Z,101456.59
2023-01-05T12:44:16.617Z,101448.66
2023-01-05T12:46:59.869Z,101449.44
2023-01-05T12:49:42.252Z,101361.00
2023-01-05T12:52:17.148Z,101405.16
2023-01-05T12:55:02.387Z,101408.06
2023-01-05T12:57:36.688Z,101419.97
2023-01-05T13:00:07.818Z,101442.38
2023-01-05T13:02:41.716Z,101410.53
2023-01-05T13:05:21.635Z,101429.16
2023-01-05T13:07:56.660Z,101436.38
2023-01-05T13:10:30.577Z,101450.41
2023-01-05T13:13:20.258Z,101298.53
2023-01-05T13:16:49.310Z,101448.53
2023-01-05T13:19:00.291Z,101426.38
2023-01-05T13:21:28.483Z,101272.78
2023-01-05T13:24:10.869Z,101444.03
2023-01-05T13:26:38.584Z,101376.19
2023-01-05T13:29:31.945Z,101434.97
2023-01-05T13:32:24.216Z,101344.06
2023-01-05T13:35:09.375Z,101409.25
2023-01-05T13:37:55.359Z,101437.19
2023-01-05T13:40:34.320Z,101447.06
2023-01-05T13:46:02.981Z,101439.50
2023-01-05T13:49:03.001Z,101439.03
2023-01-05T13:51:52.737Z,101438.91
2023-01-05T13:55:01.395Z,101428.19
2023-01-05T13:57:42.515Z,101430.56
2023-01-05T14:00:32.803Z,101396.69
2023-01-05T14:03:07.996Z,101319.53
2023-01-05T14:05:51.858Z,101337.75
2023-01-05T14:08:32.345Z,101308.19
2023-01-05T14:11:12.966Z,101304.59
2023-01-05T14:13:54.174Z,101425.31
2023-01-05T14:16:35.668Z,101424.22
2023-01-05T14:19:11.356Z,101248.88
2023-01-05T14:21:49.924Z,101430.06
2023-01-05T14:24:42.176Z,101371.94
2023-01-05T14:27:14.286Z,101313.34
2023-01-05T14:29:47.013Z,101405.28
2023-01-05T14:32:40.041Z,101432.03
2023-01-05T14:35:22.932Z,101438.25
2023-01-05T14:38:00.244Z,101434.88
2023-01-05T14:40:32.609Z,101441.78
2023-01-05T14:43:01.988Z,101395.78
2023-01-05T14:45:31.500Z,101434.50
2023-01-05T14:48:03.225Z,101362.91
2023-01-05T14:50:40.761Z,101383.88
2023-01-05T14:53:10.263Z,101446.09
2023-01-05T14:55:40.058Z,101421.81
2023-01-05T14:58:12.081Z,101456.47
2023-01-05T15:00:58.378Z,101300.66
2023-01-05T15:03:36.491Z,101349.34
2023-01-05T15:06:06.293Z,101455.13
2023-01-05T15:08:42.228Z,101385.00
2023-01-05T15:11:50.159Z,101452.34
2023-01-05T15:14:32.761Z,101448.00
2023-01-05T15:17:02.173Z,101447.09
2023-01-05T15:20:08.288Z,101451.53
2023-01-05T15:22:57.734Z,101446.03
2023-01-05T15:25:31.685Z,101430.41
2023-01-05T15:28:17.004Z,101443.56
2023-01-05T15:31:11.412Z,101448.91
2023-01-05T15:33:46.129Z,101337.44
2023-01-05T15:37:04.112Z,101393.56
2023-01-05T15:39:45.098Z,101429.72
2023-01-05T15:42:17.188Z,101430.50
2023-01-05T15:44:49.090Z,101332.81
2023-01-05T15:47:18.542Z,101438.66
2023-01-05T15:49:45.949Z,101455.31
2023-01-05T15:52:36.298Z,101428.75
2023-01-05T15:55:11.929Z,101435.84
2023-01-05T15:57:38.589Z,101408.94
2023-01-05T16:00:20.822Z,101442.16
2023-01-05T16:02:47.211Z,101357.59
2023-01-05T16:05:17.330Z,101443.25
2023-01-05T16:07:54.323Z,101442.50
2023-01-05T16:10:29.653Z,101444.97
2023-01-05T16:13:12.253Z,101414.56
2023-01-05T16:15:41.357Z,101399.84
2023-01-05T16:18:14.823Z,101324.72
2023-01-05T16:20:46.491Z,101413.97
2023-01-05T16:23:36.848Z,101418.91
2023-01-05T16:26:03.959Z,101425.75
2023-01-05T16:28:30.505Z,101418.25
2023-01-05T16:30:57.113Z,101427.88
2023-01-05T16:33:34.454Z,101431.16
2023-01-05T16:36:13.345Z,101442.28
2023-01-05T16:38:41.233Z,101412.69
2023-01-05T16:41:19.376Z,101425.63
2023-01-05T16:43:51.907Z,101438.66
2023-01-05T16:46:20.583Z,101435.19
2023-01-05T16:48:51.236Z,101421.22
2023-01-05T16:51:36.138Z,101415.03
2023-01-05T16:54:12.417Z,101397.78
2023-01-05T16:56:58.569Z,101377.00
2023-01-05T16:59:40.193Z,101409.84
2023-01-05T17:02:45.385Z,101415.09
2023-01-05T17:05:15.686Z,101416.81
2023-01-05T17:07:44.041Z,101432.56
2023-01-05T17:10:20.324Z,101330.38
2023-01-05T17:12:53.925Z,101397.84
2023-01-05T17:15:23.871Z,101378.53
2023-01-05T17:17:50.951Z,101411.41
2023-01-05T17:20:17.350Z,101373.34
2023-01-05T17:22:44.065Z,101310.19
2023-01-05T17:25:14.158Z,101402.59
2023-01-05T17:27:41.901Z,101293.56
2023-01-05T17:30:13.986Z,101297.44
2023-01-05T17:32:40.347Z,101356.13
2023-01-05T17:37:38.307Z,101391.50
2023-01-05T17:40:07.154Z,101375.81
2023-01-05T17:42:42.672Z,101383.47
2023-01-05T17:45:12.814Z,101373.94
2023-01-05T17:47:39.394Z,101300.28
2023-01-05T17:50:06.493Z,101263.06
2023-01-05T17:52:32.933Z,101387.78
2023-01-05T17:54:59.287Z,101388.47
2023-01-05T17:57:25.694Z,101359.91
2023-01-05T17:59:52.285Z,101356.47
2023-01-05T18:02:18.749Z,101317.44
2023-01-05T18:04:45.103Z,101366.88
2023-01-05T18:07:11.463Z,101340.00
2023-01-05T18:09:38.012Z,101295.84
2023-01-05T18:12:05.062Z,101292.16
2023-01-05T18:14:31.523Z,101346.00
2023-01-05T18:16:58.063Z,101234.53
2023-01-05T18:19:24.601Z,101247.28
2023-01-05T18:21:50.933Z,101325.19
2023-01-05T18:24:17.333Z,101365.00
2023-01-05T18:26:43.871Z,101322.44
2023-01-05T18:29:10.291Z,101219.34
2023-01-05T18:31:38.678Z,101345.84
2023-01-05T18:34:08.115Z,101351.84
2023-01-05T18:36:34.510Z,101327.72
2023-01-05T18:39:00.902Z,101343.16
2023-01-05T18:41:27.274Z,101331.03
2023-01-05T18:43:53.644Z,101223.75
2023-01-05T18:46:20.053Z,101298.13
2023-01-05T18:48:51.165Z,101319.75
2023-01-05T18:51:18.031Z,101308.47
2023-01-05T18:53:44.447Z,101308.38
2023-01-05T18:56:13.740Z,101236.41
2023-01-05T18:58:40.703Z,101208.69
2023-01-05T19:01:13.103Z,101195.75
2023-01-05T19:03:40.118Z,101321.94
2023-01-05T19:06:15.688Z,101311.44
2023-01-05T19:08:43.252Z,101300.38
2023-01-05T19:11:18.219Z,101287.16
2023-01-05T19:13:45.403Z,101316.53
2023-01-05T19:16:15.117Z,101182.22
2023-01-05T19:18:43.336Z,101143.50
2023-01-05T19:21:09.996Z,101344.34
2023-01-05T19:23:36.455Z,101321.94
2023-01-05T19:26:05.355Z,101216.31
2023-01-05T19:28:34.664Z,101300.06
2023-01-05T19:31:11.391Z,101196.44
2023-01-05T19:33:39.091Z,101238.34
2023-01-05T19:36:13.488Z,101191.00
2023-01-05T19:38:40.648Z,101226.34
2023-01-05T19:41:19.030Z,101324.75
2023-01-05T19:43:51.193Z,101326.47
2023-01-05T19:46:19.649Z,101320.34
2023-01-05T19:48:47.306Z,101321.28
2023-01-05T19:51:16.124Z,101314.19
2023-01-05T19:53:44.486Z,101179.41
2023-01-05T19:56:15.614Z,101249.38
2023-01-05T19:58:45.916Z,101303.66
2023-01-05T20:01:17.731Z,101220.63
2023-01-05T20:03:46.655Z,101106.59
2023-01-05T20:06:18.377Z,101320.63
2023-01-05T20:08:52.632Z,101236.38
2023-01-05T20:11:20.832Z,101313.94
2023-01-05T20:13:51.876Z,101312.16
2023-01-05T20:16:21.778Z,101277.91
2023-01-05T20:18:48.380Z,101219.94
2023-01-05T20:21:14.902Z,101102.13
2023-01-05T20:23:42.011Z,101279.53
2023-01-05T20:26:12.842Z,101274.19
2023-01-05T20:28:39.938Z,101303.72
2023-01-05T20:31:23.855Z,101203.69
2023-01-05T20:33:54.236Z,101267.41
2023-01-05T20:36:22.347Z,101305.28
2023-01-05T20:38:49.334Z,101294.88
2023-01-05T20:41:22.424Z,101315.59
2023-01-05T20:43:50.416Z,101234.41
2023-01-05T20:46:18.989Z,101297.53
2023-01-05T20:48:45.889Z,101310.53
2023-01-05T20:51:14.256Z,101290.38
2023-01-05T20:53:41.425Z,101196.88
2023-01-05T20:56:13.325Z,101292.84
2023-01-05T20:58:40.952Z,101313.81
2023-01-05T21:01:10.831Z,101209.03
2023-01-05T21:03:38.726Z,101287.78
2023-01-05T21:06:06.868Z,101191.00
2023-01-05T21:08:33.218Z,101276.53
2023-01-05T21:11:01.343Z,101262.34
2023-01-05T21:13:31.247Z,101249.03
2023-01-05T21:16:05.599Z,101260.97
2023-01-05T21:18:33.419Z,101285.06
2023-01-05T21:20:59.945Z,101306.00
2023-01-05T21:23:26.402Z,101283.97
2023-01-05T21:26:06.797Z,101253.84
2023-01-05T21:28:38.205Z,101295.06
2023-01-05T21:31:10.035Z,101306.88
2023-01-05T21:33:36.637Z,101265.56
2023-01-05T21:36:04.568Z,101287.91
2023-01-05T21:38:59.928Z,101284.38
2023-01-05T21:41:17.859Z,101187.69
2023-01-05T21:43:44.254Z,101214.72
2023-01-05T21:46:12.010Z,101313.63
2023-01-05T21:48:39.079Z,101277.66
2023-01-05T21:51:24.329Z,101269.81
2023-01-05T21:54:09.278Z,101292.66
2023-01-05T21:56:39.911Z,101288.09
2023-01-05T21:59:09.899Z,101266.94
2023-01-05T22:01:38.397Z,101309.50
2023-01-05T22:04:05.694Z,101316.41
2023-01-05T22:06:32.289Z,101209.97
2023-01-05T22:08:59.017Z,101253.31
2023-01-05T22:11:25.446Z,101253.91
2023-01-05T22:13:51.834Z,101257.09
2023-01-05T22:16:18.237Z,101191.00
2023-01-05T22:18:44.588Z,101254.28
2023-01-05T22:21:10.998Z,101289.09
2023-01-05T22:23:38.275Z,101141.31
2023-01-05T22:26:09.968Z,101276.41
2023-01-05T22:28:37.931Z,101287.66
2023-01-05T22:31:16.164Z,101237.56
2023-01-05T22:33:45.275Z,101276.75
2023-01-05T22:36:13.716Z,101308.25
2023-01-05T22:38:43.275Z,101246.81
2023-01-05T22:41:12.857Z,101269.81
2023-01-05T22:43:40.777Z,101296.31
2023-01-05T22:46:10.287Z,101286.63
2023-01-05T22:48:39.907Z,101283.34
2023-01-05T22:51:09.953Z,101250.69
2023-01-05T22:53:39.949Z,101275.22
2023-01-05T22:56:09.161Z,101154.38
2023-01-05T22:58:36.331Z,101273.63
2023-01-05T23:01:20.020Z,101262.50
2023-01-05T23:03:47.056Z,101213.75
2023-01-05T23:06:13.847Z,101255.81
2023-01-05T23:08:41.632Z,101278.59
2023-01-05T23:11:10.871Z,101192.06
2023-01-05T23:13:37.874Z,101277.97
2023-01-05T23:16:05.596Z,101272.72
2023-01-05T23:18:33.758Z,101262.38
2023-01-05T23:21:02.924Z,101231.94
2023-01-05T23:23:29.906Z,101253.84
2023-01-05T23:25:56.340Z,101246.59
2023-01-05T23:28:24.520Z,101195.50
2023-01-05T23:30:53.776Z,101267.34
2023-01-05T23:33:21.877Z,101180.88
2023-01-05T23:35:50.932Z,101270.75
2023-01-05T23:38:17.856Z,101264.72
2023-01-05T23:40:49.240Z,101216.78
2023-01-05T23:43:17.659Z,101232.75
2023-01-05T23:45:44.514Z,101249.16
2023-01-05T23:48:11.716Z,101135.97
2023-01-05T23:50:43.327Z,101238.88
2023-01-05T23:53:10.260Z,101165.47
2023-01-05T23:55:36.858Z,101253.69
2023-01-05T23:58:03.560Z,101219.06
